createdAt,value
2019-02-23T00:01:36.419Z,13.77
2019-02-23T00:04:07.017Z,13.67
2019-02-23T00:06:37.617Z,12.10
2019-02-23T00:09:08.514Z,12.70
2019-02-23T00:11:39.341Z,10.37
2019-02-23T00:14:09.924Z,11.47
2019-02-23T00:16:40.451Z,11.67
2019-02-23T00:19:11.022Z,11.70
2019-02-23T00:21:41.564Z,12.87
2019-02-23T00:24:12.062Z,11.10
2019-02-23T00:26:42.666Z,10.47
2019-02-23T00:29:13.462Z,11.43
2019-02-23T00:31:44.366Z,13.37
2019-02-23T00:34:15.072Z,9.93
2019-02-23T00:36:45.952Z,10.70
2019-02-23T00:39:16.515Z,9.97
2019-02-23T00:41:47.009Z,9.90
2019-02-23T00:44:17.594Z,7.13
2019-02-23T00:46:48.112Z,9.63
2019-02-23T00:49:18.612Z,10.70
2019-02-23T00:51:51.708Z,10.57
2019-02-23T00:54:21.320Z,8.90
2019-02-23T00:56:51.803Z,12.33
2019-02-23T00:59:22.318Z,15.40
2019-02-23T01:01:52.858Z,15.20
2019-02-23T01:04:23.324Z,12.67
2019-02-23T01:06:54.100Z,14.87
2019-02-23T01:09:24.680Z,13.13
2019-02-23T01:11:55.303Z,13.23
2019-02-23T01:14:26.831Z,10.97
2019-02-23T01:16:57.308Z,11.80
2019-02-23T01:19:27.758Z,11.13
2019-02-23T01:21:58.255Z,11.67
2019-02-23T01:24:29.012Z,12.30
2019-02-23T01:26:59.680Z,10.13
2019-02-23T01:29:30.212Z,9.77
2019-02-23T01:32:01.848Z,12.33
2019-02-23T01:34:32.354Z,12.60
2019-02-23T01:37:02.801Z,7.50
2019-02-23T01:39:33.386Z,9.87
2019-02-23T01:42:03.828Z,11.77
2019-02-23T01:44:34.324Z,9.03
2019-02-23T01:47:04.830Z,11.67
2019-02-23T01:49:35.322Z,11.90
2019-02-23T01:52:05.728Z,10.30
2019-02-23T01:54:36.187Z,10.93
2019-02-23T01:57:06.805Z,12.30
2019-02-23T01:59:37.353Z,11.30
2019-02-23T02:02:08.128Z,11.13
2019-02-23T02:04:38.817Z,11.47
2019-02-23T02:07:09.408Z,11.23
2019-02-23T02:09:40.012Z,11.23
2019-02-23T02:12:11.199Z,8.50
2019-02-23T02:14:41.848Z,11.20
2019-02-23T02:17:12.612Z,11.30
2019-02-23T02:19:43.175Z,10.07
2019-02-23T02:22:13.639Z,13.00
2019-02-23T02:24:44.212Z,12.40
2019-02-23T02:27:14.706Z,11.13
2019-02-23T02:29:45.224Z,12.90
2019-02-23T02:32:15.765Z,12.67
2019-02-23T02:34:46.206Z,12.87
2019-02-23T02:37:16.763Z,11.27
2019-02-23T02:39:47.306Z,11.63
2019-02-23T02:42:17.782Z,11.73
2019-02-23T02:44:48.304Z,14.17
2019-02-23T02:47:19.992Z,12.93
2019-02-23T02:49:50.963Z,12.33
2019-02-23T02:52:22.509Z,14.07
2019-02-23T02:54:53.050Z,12.53
2019-02-23T02:57:23.522Z,11.87
2019-02-23T02:59:54.008Z,12.77
2019-02-23T03:02:24.440Z,12.23
2019-02-23T03:04:54.994Z,12.67
2019-02-23T03:07:25.497Z,12.33
2019-02-23T03:09:55.980Z,12.77
2019-02-23T03:12:26.418Z,14.63
2019-02-23T03:14:56.927Z,14.53
2019-02-23T03:17:27.421Z,15.70
2019-02-23T03:19:57.882Z,15.10
2019-02-23T03:22:28.390Z,15.27
2019-02-23T03:24:58.929Z,13.80
2019-02-23T03:27:29.506Z,14.13
2019-02-23T03:30:00.022Z,14.87
2019-02-23T03:32:30.582Z,14.30
2019-02-23T03:35:01.168Z,14.13
2019-02-23T03:37:31.949Z,13.30
2019-02-23T03:40:02.419Z,16.17
2019-02-23T03:42:32.874Z,16.67
2019-02-23T03:45:03.510Z,16.07
2019-02-23T03:47:34.002Z,16.40
2019-02-23T03:50:04.592Z,15.57
2019-02-23T03:52:35.104Z,13.50
2019-02-23T03:55:05.864Z,14.07
2019-02-23T03:57:36.291Z,15.20
2019-02-23T04:00:07.931Z,13.90
2019-02-23T04:02:38.522Z,14.23
2019-02-23T04:05:09.076Z,13.27
2019-02-23T04:07:39.540Z,13.83
2019-02-23T04:10:10.166Z,13.43
2019-02-23T04:12:40.787Z,14.50
2019-02-23T04:15:11.423Z,14.33
2019-02-23T04:17:42.021Z,14.67
2019-02-23T04:20:12.416Z,12.30
2019-02-23T04:22:42.954Z,15.50
2019-02-23T04:25:13.495Z,13.20
2019-02-23T04:27:45.811Z,14.13
2019-02-23T04:30:16.301Z,14.63
2019-02-23T04:32:46.794Z,13.67
2019-02-23T04:35:17.234Z,15.27
2019-02-23T04:37:47.756Z,13.90
2019-02-23T04:40:18.262Z,15.07
2019-02-23T04:42:48.770Z,14.77
2019-02-23T04:45:19.242Z,13.33
2019-02-23T04:47:49.681Z,15.10
2019-02-23T04:50:20.133Z,13.93
2019-02-23T04:52:50.731Z,13.43
2019-02-23T04:55:21.289Z,14.13
2019-02-23T04:57:51.799Z,14.33
2019-02-23T05:00:22.341Z,12.97
2019-02-23T05:02:52.781Z,13.30
2019-02-23T05:05:23.497Z,13.53
2019-02-23T05:07:53.958Z,13.73
2019-02-23T05:10:24.424Z,14.33
2019-02-23T05:12:54.992Z,13.57
2019-02-23T05:15:25.513Z,13.73
2019-02-23T05:17:55.998Z,14.67
2019-02-23T05:20:26.512Z,15.03
2019-02-23T05:22:57.082Z,13.17
2019-02-23T05:25:27.537Z,13.23
2019-02-23T05:27:58.194Z,13.33
2019-02-23T05:30:28.699Z,13.63
2019-02-23T05:32:59.200Z,14.13
2019-02-23T05:35:29.766Z,11.87
2019-02-23T05:38:00.324Z,13.13
2019-02-23T05:40:30.884Z,12.80
2019-02-23T05:43:01.579Z,13.10
2019-02-23T05:45:32.131Z,15.77
2019-02-23T05:48:02.780Z,14.63
2019-02-23T05:50:33.345Z,14.67
2019-02-23T05:53:03.849Z,13.30
2019-02-23T05:55:34.377Z,13.97
2019-02-23T05:58:04.818Z,12.67
2019-02-23T06:00:35.312Z,12.83
2019-02-23T06:03:05.802Z,13.87
2019-02-23T06:05:36.334Z,13.80
2019-02-23T06:08:06.839Z,15.93
2019-02-23T06:10:37.387Z,17.43
2019-02-23T06:13:07.857Z,18.00
2019-02-23T06:15:38.354Z,19.00
2019-02-23T06:18:08.852Z,18.07
2019-02-23T06:20:39.413Z,16.47
2019-02-23T06:23:09.893Z,18.37
2019-02-23T06:25:40.473Z,19.13
2019-02-23T06:28:10.998Z,19.27
2019-02-23T06:30:41.595Z,18.63
2019-02-23T06:33:12.157Z,20.83
2019-02-23T06:35:42.693Z,20.33
2019-02-23T06:38:13.694Z,24.30
2019-02-23T06:40:44.171Z,25.20
2019-02-23T06:43:14.616Z,22.30
2019-02-23T06:45:45.312Z,20.50
2019-02-23T06:48:15.770Z,16.50
2019-02-23T06:50:46.517Z,17.73
2019-02-23T06:53:17.023Z,16.53
2019-02-23T06:55:47.665Z,17.07
2019-02-23T06:58:18.103Z,20.17
2019-02-23T07:00:48.557Z,17.67
2019-02-23T07:03:19.169Z,17.47
2019-02-23T07:05:50.465Z,19.10
2019-02-23T07:08:20.917Z,18.90
2019-02-23T07:10:51.378Z,18.60
2019-02-23T07:13:25.120Z,17.40
2019-02-23T07:15:55.549Z,17.23
2019-02-23T07:18:26.117Z,16.73
2019-02-23T07:20:56.626Z,18.77
2019-02-23T07:23:27.227Z,17.37
2019-02-23T07:25:57.740Z,18.17
2019-02-23T07:28:28.269Z,18.17
2019-02-23T07:30:58.931Z,15.80
2019-02-23T07:33:32.860Z,14.63
2019-02-23T07:36:01.997Z,14.77
2019-02-23T07:38:35.456Z,15.30
2019-02-23T07:41:05.267Z,17.13
2019-02-23T07:43:35.812Z,22.23
2019-02-23T07:46:07.762Z,25.50
2019-02-23T07:48:38.447Z,18.47
2019-02-23T07:51:09.145Z,15.23
2019-02-23T07:53:39.748Z,17.53
2019-02-23T07:56:11.291Z,12.70
2019-02-23T07:58:41.878Z,13.43
2019-02-23T08:01:12.498Z,14.33
2019-02-23T08:03:42.973Z,14.53
2019-02-23T08:06:13.541Z,18.33
2019-02-23T08:08:44.235Z,14.60
2019-02-23T08:11:16.160Z,16.77
2019-02-23T08:13:46.723Z,16.40
2019-02-23T08:16:17.381Z,16.20
2019-02-23T08:18:48.361Z,16.23
2019-02-23T08:21:18.834Z,17.37
2019-02-23T08:23:49.369Z,18.07
2019-02-23T08:26:20.973Z,15.53
2019-02-23T08:28:51.542Z,16.80
2019-02-23T08:31:23.607Z,19.57
2019-02-23T08:33:54.100Z,17.33
2019-02-23T08:36:24.820Z,16.07
2019-02-23T08:38:55.489Z,19.13
2019-02-23T08:41:26.113Z,16.90
2019-02-23T08:43:57.039Z,17.27
2019-02-23T08:46:27.546Z,16.87
2019-02-23T08:48:58.081Z,15.13
2019-02-23T08:51:28.658Z,15.53
2019-02-23T08:53:59.163Z,14.80
2019-02-23T08:56:31.069Z,13.10
2019-02-23T08:59:01.718Z,14.93
2019-02-23T09:01:32.431Z,13.57
2019-02-23T09:04:04.966Z,12.47
2019-02-23T09:06:35.477Z,13.10
2019-02-23T09:09:08.248Z,12.17
2019-02-23T09:11:42.903Z,12.00
2019-02-23T09:14:13.783Z,13.87
2019-02-23T09:16:44.387Z,12.30
2019-02-23T09:19:14.988Z,12.73
2019-02-23T09:21:45.525Z,12.23
2019-02-23T09:24:19.367Z,11.17
2019-02-23T09:26:49.570Z,9.90
2019-02-23T09:29:20.322Z,10.77
2019-02-23T09:31:50.843Z,11.87
2019-02-23T09:34:21.663Z,11.23
2019-02-23T09:36:52.297Z,11.90
2019-02-23T09:39:22.947Z,10.93
2019-02-23T09:41:53.609Z,9.47
2019-02-23T09:44:24.234Z,7.70
2019-02-23T09:46:54.842Z,5.47
2019-02-23T09:49:26.191Z,5.53
2019-02-23T09:51:57.368Z,5.33
2019-02-23T09:54:30.650Z,6.30
2019-02-23T09:57:00.737Z,7.07
2019-02-23T09:59:31.372Z,6.43
2019-02-23T10:02:02.173Z,6.77
2019-02-23T10:04:33.192Z,7.93
2019-02-23T10:07:03.797Z,6.27
2019-02-23T10:09:34.429Z,8.33
2019-02-23T10:12:04.978Z,7.63
2019-02-23T10:14:35.613Z,9.10
2019-02-23T10:17:06.273Z,8.57
2019-02-23T10:19:36.851Z,9.23
2019-02-23T10:22:07.369Z,9.13
2019-02-23T10:24:37.979Z,7.87
2019-02-23T10:27:08.793Z,8.47
2019-02-23T10:29:41.481Z,9.47
2019-02-23T10:32:12.051Z,8.63
2019-02-23T10:34:43.775Z,7.83
2019-02-23T10:37:14.521Z,9.23
2019-02-23T10:39:46.235Z,9.07
2019-02-23T10:42:16.799Z,8.53
2019-02-23T10:44:47.351Z,9.30
2019-02-23T10:47:17.890Z,9.80
2019-02-23T10:49:49.473Z,8.27
2019-02-23T10:52:21.278Z,8.30
2019-02-23T10:54:52.969Z,8.63
2019-02-23T10:57:24.568Z,8.63
2019-02-23T10:59:55.136Z,10.03
2019-02-23T11:02:26.277Z,9.57
2019-02-23T11:04:57.103Z,9.50
2019-02-23T11:07:27.816Z,8.63
2019-02-23T11:09:58.458Z,9.80
2019-02-23T11:12:29.239Z,9.40
2019-02-23T11:14:59.838Z,8.20
2019-02-23T11:17:30.769Z,9.17
2019-02-23T11:20:01.319Z,7.70
2019-02-23T11:22:33.719Z,8.13
2019-02-23T11:25:04.534Z,8.70
2019-02-23T11:27:35.103Z,8.80
2019-02-23T11:30:07.601Z,9.43
2019-02-23T11:32:38.273Z,9.57
2019-02-23T11:35:09.616Z,9.20
2019-02-23T11:37:42.771Z,8.97
2019-02-23T11:40:13.511Z,7.70
2019-02-23T11:42:44.140Z,9.10
2019-02-23T11:45:14.776Z,8.07
2019-02-23T11:47:45.398Z,8.00
2019-02-23T11:50:16.172Z,8.60
2019-02-23T11:52:46.671Z,6.87
2019-02-23T11:55:18.854Z,7.30
2019-02-23T11:57:49.558Z,7.87
2019-02-23T12:00:20.102Z,8.27
2019-02-23T12:02:52.753Z,8.73
2019-02-23T12:05:22.880Z,8.47
2019-02-23T12:07:53.622Z,7.80
2019-02-23T12:10:24.251Z,7.57
2019-02-23T12:12:54.949Z,7.47
2019-02-23T12:15:25.430Z,8.33
2019-02-23T12:17:56.001Z,10.00
2019-02-23T12:20:26.635Z,8.63
2019-02-23T12:22:57.204Z,9.10
2019-02-23T12:25:27.763Z,8.67
2019-02-23T12:27:59.482Z,8.40
2019-02-23T12:30:32.552Z,9.20
2019-02-23T12:33:02.170Z,7.90
2019-02-23T12:35:33.882Z,10.73
2019-02-23T12:38:04.581Z,8.83
2019-02-23T12:40:35.155Z,8.37
2019-02-23T12:43:05.742Z,8.00
2019-02-23T12:45:36.334Z,8.57
2019-02-23T12:48:07.007Z,9.80
2019-02-23T12:50:37.523Z,7.97
2019-02-23T12:53:08.006Z,7.83
2019-02-23T12:55:38.532Z,8.00
2019-02-23T12:58:09.105Z,8.90
2019-02-23T13:00:39.640Z,9.00
2019-02-23T13:03:11.300Z,8.03
2019-02-23T13:05:43.188Z,8.90
2019-02-23T13:08:14.038Z,9.30
2019-02-23T13:10:44.940Z,10.03
2019-02-23T13:14:11.517Z,10.13
2019-02-23T13:17:16.907Z,8.23
2019-02-23T13:20:40.509Z,8.97
2019-02-23T13:23:30.380Z,9.07
2019-02-23T13:26:28.022Z,9.27
2019-02-23T13:29:42.712Z,8.63
2019-02-23T13:32:41.050Z,9.43
2019-02-23T13:35:42.551Z,9.17
2019-02-23T13:38:49.420Z,8.07
2019-02-23T13:41:57.798Z,8.50
2019-02-23T13:45:05.856Z,8.10
2019-02-23T13:48:17.842Z,7.93
2019-02-23T13:51:50.470Z,8.87
2019-02-23T13:54:39.192Z,8.67
2019-02-23T13:57:55.393Z,9.23
2019-02-23T14:01:13.249Z,9.00
2019-02-23T14:04:23.604Z,8.53
2019-02-23T14:07:40.869Z,9.57
2019-02-23T14:11:04.561Z,10.47
2019-02-23T14:13:56.595Z,9.63
2019-02-23T14:16:46.383Z,9.17
2019-02-23T14:19:46.114Z,9.53
2019-02-23T14:23:02.541Z,10.30
2019-02-23T14:26:16.826Z,9.47
2019-02-23T14:29:27.237Z,11.00
2019-02-23T14:32:38.937Z,11.63
2019-02-23T14:35:41.789Z,11.27
2019-02-23T14:38:54.921Z,11.13
2019-02-23T14:41:49.866Z,9.43
2019-02-23T14:44:55.319Z,11.33
2019-02-23T14:48:04.093Z,13.03
2019-02-23T14:51:20.962Z,12.20
2019-02-23T14:54:45.554Z,11.40
2019-02-23T14:58:12.191Z,11.97
2019-02-23T15:01:19.772Z,13.20
2019-02-23T15:04:55.952Z,12.33
2019-02-23T15:08:02.540Z,11.73
2019-02-23T15:11:12.410Z,12.43
2019-02-23T15:14:26.353Z,11.77
2019-02-23T15:17:49.955Z,11.93
2019-02-23T15:20:52.440Z,14.83
2019-02-23T15:23:35.881Z,11.37
2019-02-23T15:26:27.690Z,13.83
2019-02-23T15:29:34.745Z,12.50
2019-02-23T15:32:54.598Z,12.03
2019-02-23T15:36:05.541Z,12.97
2019-02-23T15:38:55.686Z,13.97
2019-02-23T15:41:55.360Z,13.93
2019-02-23T15:45:18.581Z,11.57
2019-02-23T15:48:26.494Z,12.87
2019-02-23T15:50:57.239Z,15.33
2019-02-23T15:53:27.904Z,13.20
2019-02-23T15:55:58.472Z,12.43
2019-02-23T15:58:29.106Z,12.97
2019-02-23T16:00:59.650Z,13.00
2019-02-23T16:03:30.233Z,12.60
2019-02-23T16:06:00.762Z,12.53
2019-02-23T16:08:31.367Z,13.23
2019-02-23T16:11:01.960Z,13.70
2019-02-23T16:13:32.546Z,15.03
2019-02-23T16:16:03.054Z,13.80
2019-02-23T16:18:33.820Z,14.37
2019-02-23T16:21:04.553Z,14.27
2019-02-23T16:23:35.698Z,14.30
2019-02-23T16:26:06.551Z,14.53
2019-02-23T16:28:37.013Z,13.30
2019-02-23T16:31:07.639Z,14.47
2019-02-23T16:33:38.116Z,14.43
2019-02-23T16:36:08.766Z,14.47
2019-02-23T16:38:39.358Z,15.97
2019-02-23T16:41:10.005Z,14.03
2019-02-23T16:43:40.552Z,14.77
2019-02-23T16:46:11.293Z,14.40
2019-02-23T16:48:41.888Z,13.70
2019-02-23T16:51:12.450Z,15.17
2019-02-23T16:53:43.045Z,32.70
2019-02-23T16:56:13.667Z,23.97
2019-02-23T16:58:44.385Z,20.83
2019-02-23T17:01:15.018Z,20.67
2019-02-23T17:03:45.549Z,26.23
2019-02-23T17:06:17.532Z,24.57
2019-02-23T17:08:48.198Z,26.23
2019-02-23T17:11:18.816Z,20.57
2019-02-23T17:13:49.569Z,18.87
2019-02-23T17:16:21.671Z,18.13
2019-02-23T17:18:52.216Z,17.63
2019-02-23T17:21:22.896Z,17.87
2019-02-23T17:23:53.394Z,15.27
2019-02-23T17:26:25.106Z,15.20
2019-02-23T17:28:55.662Z,16.87
2019-02-23T17:31:26.357Z,17.23
2019-02-23T17:33:57.051Z,16.50
2019-02-23T17:36:27.710Z,18.13
2019-02-23T17:38:58.404Z,15.53
2019-02-23T17:41:29.033Z,21.20
2019-02-23T17:43:59.717Z,27.67
2019-02-23T17:46:30.611Z,31.83
2019-02-23T17:49:01.140Z,34.60
2019-02-23T17:51:31.696Z,34.00
2019-02-23T17:54:02.185Z,34.13
2019-02-23T17:56:32.676Z,38.93
2019-02-23T17:59:03.258Z,35.27
2019-02-23T18:01:33.831Z,32.67
2019-02-23T18:04:04.443Z,35.37
2019-02-23T18:06:34.964Z,33.57
2019-02-23T18:09:06.200Z,25.37
2019-02-23T18:11:38.355Z,28.03
2019-02-23T18:14:08.989Z,32.37
2019-02-23T18:16:39.441Z,33.53
2019-02-23T18:19:12.296Z,26.67
2019-02-23T18:21:42.897Z,27.50
2019-02-23T18:24:14.519Z,28.37
2019-02-23T18:26:45.097Z,25.73
2019-02-23T18:29:15.701Z,23.43
2019-02-23T18:31:46.379Z,23.43
2019-02-23T18:34:17.145Z,17.47
2019-02-23T18:36:47.776Z,21.37
2019-02-23T18:39:18.443Z,18.57
2019-02-23T18:41:49.012Z,21.63
2019-02-23T18:44:19.605Z,18.57
2019-02-23T18:46:51.229Z,19.80
2019-02-23T18:49:21.861Z,19.90
2019-02-23T18:51:52.545Z,21.17
2019-02-23T18:54:23.160Z,25.27
2019-02-23T18:56:53.850Z,29.63
2019-02-23T18:59:24.354Z,30.33
2019-02-23T19:01:54.986Z,31.73
2019-02-23T19:04:25.638Z,35.63
2019-02-23T19:06:56.529Z,46.33
2019-02-23T19:09:27.069Z,39.20
2019-02-23T19:11:57.736Z,34.93
2019-02-23T19:14:28.445Z,32.27
2019-02-23T19:16:59.224Z,43.70
2019-02-23T19:19:30.000Z,41.83
2019-02-23T19:22:00.697Z,55.07
2019-02-23T19:24:31.355Z,45.40
2019-02-23T19:27:01.962Z,41.40
2019-02-23T19:29:33.571Z,35.90
2019-02-23T19:32:04.281Z,26.90
2019-02-23T19:34:34.933Z,25.07
2019-02-23T19:37:05.598Z,25.37
2019-02-23T19:39:37.298Z,26.00
2019-02-23T19:42:07.935Z,25.10
2019-02-23T19:44:38.698Z,22.33
2019-02-23T19:47:13.329Z,18.60
2019-02-23T19:49:43.995Z,19.53
2019-02-23T19:52:18.773Z,18.63
2019-02-23T19:54:49.362Z,16.43
2019-02-23T19:57:19.969Z,18.73
2019-02-23T19:59:50.608Z,19.07
2019-02-23T20:02:22.161Z,19.20
2019-02-23T20:04:52.764Z,25.27
2019-02-23T20:07:23.381Z,22.40
2019-02-23T20:09:53.925Z,27.23
2019-02-23T20:12:24.427Z,22.13
2019-02-23T20:14:55.025Z,21.83
2019-02-23T20:17:25.561Z,22.37
2019-02-23T20:19:56.176Z,24.50
2019-02-23T20:22:26.699Z,21.33
2019-02-23T20:24:57.397Z,21.83
2019-02-23T20:27:27.939Z,22.33
2019-02-23T20:29:58.595Z,23.40
2019-02-23T20:32:29.106Z,22.87
2019-02-23T20:34:59.593Z,22.00
2019-02-23T20:37:30.181Z,22.17
2019-02-23T20:40:00.701Z,20.30
2019-02-23T20:42:31.796Z,22.70
2019-02-23T20:45:02.323Z,23.20
2019-02-23T20:47:33.483Z,21.73
2019-02-23T20:50:04.428Z,23.30
2019-02-23T20:52:35.818Z,23.97
2019-02-23T20:55:06.697Z,24.70
2019-02-23T20:57:37.477Z,28.77
2019-02-23T21:00:08.567Z,26.03
2019-02-23T21:02:40.803Z,24.73
2019-02-23T21:05:11.551Z,24.10
2019-02-23T21:07:42.208Z,24.10
2019-02-23T21:10:12.651Z,25.73
2019-02-23T21:12:43.248Z,27.40
2019-02-23T21:15:13.794Z,24.70
2019-02-23T21:17:44.431Z,25.00
2019-02-23T21:20:15.074Z,26.33
2019-02-23T21:22:46.025Z,26.20
2019-02-23T21:25:16.587Z,24.67
2019-02-23T21:27:48.233Z,26.07
2019-02-23T21:30:18.813Z,26.67
2019-02-23T21:32:49.409Z,26.23
2019-02-23T21:35:20.061Z,25.23
2019-02-23T21:37:50.553Z,27.20
2019-02-23T21:40:21.113Z,28.90
2019-02-23T21:42:51.635Z,39.57
2019-02-23T21:45:22.139Z,46.00
2019-02-23T21:47:52.745Z,43.77
2019-02-23T21:50:23.341Z,49.07
2019-02-23T21:52:53.912Z,32.33
2019-02-23T21:55:24.603Z,31.20
2019-02-23T21:57:55.280Z,34.87
2019-02-23T22:00:25.851Z,42.80
2019-02-23T22:02:56.421Z,50.07
2019-02-23T22:05:26.975Z,40.87
2019-02-23T22:07:57.545Z,41.80
2019-02-23T22:10:28.093Z,41.77
2019-02-23T22:12:58.753Z,39.40
2019-02-23T22:15:29.444Z,42.47
2019-02-23T22:17:59.949Z,40.03
2019-02-23T22:20:30.542Z,38.80
2019-02-23T22:23:02.074Z,44.90
2019-02-23T22:25:32.733Z,44.00
2019-02-23T22:28:03.351Z,44.27
2019-02-23T22:30:33.956Z,45.50
2019-02-23T22:33:04.424Z,44.57
2019-02-23T22:35:34.944Z,43.93
2019-02-23T22:38:05.505Z,41.80
2019-02-23T22:40:36.034Z,46.03
2019-02-23T22:43:06.590Z,45.83
2019-02-23T22:45:37.117Z,43.83
2019-02-23T22:48:07.697Z,42.53
2019-02-23T22:50:38.199Z,38.00
2019-02-23T22:53:08.679Z,43.60
2019-02-23T22:55:39.235Z,43.83
2019-02-23T22:58:09.759Z,46.93
2019-02-23T23:00:53.849Z,47.73
2019-02-23T23:03:25.418Z,53.40
2019-02-23T23:05:55.999Z,55.00
2019-02-23T23:08:26.536Z,72.77
2019-02-23T23:10:57.048Z,75.10
2019-02-23T23:13:27.631Z,80.50
2019-02-23T23:15:58.190Z,77.57
2019-02-23T23:18:28.667Z,73.27
2019-02-23T23:20:59.246Z,77.00
2019-02-23T23:23:29.929Z,93.27
2019-02-23T23:26:00.449Z,96.30
2019-02-23T23:28:31.033Z,100.57
2019-02-23T23:31:01.591Z,111.30
2019-02-23T23:33:32.087Z,121.53
2019-02-23T23:36:02.616Z,137.90
2019-02-23T23:38:33.123Z,139.17
2019-02-23T23:41:03.677Z,147.40
2019-02-23T23:43:34.161Z,145.67
2019-02-23T23:46:04.760Z,150.10
2019-02-23T23:48:35.243Z,151.67
2019-02-23T23:51:05.753Z,145.10
2019-02-23T23:53:36.235Z,134.47
2019-02-23T23:56:07.779Z,132.43
2019-02-23T23:58:38.283Z,130.13
